sensor_id;sensor_type;location;lat;lon;timestamp;P1;durP1;ratioP1;P2;durP2;ratioP2
4027;SDS011;2028;51.346;12.396;2023-05-07T00:02:22;13.90;;;12.63;;
4027;SDS011;2028;51.346;12.396;2023-05-07T00:04:48;14.33;;;13.03;;
4027;SDS011;2028;51.346;12.396;2023-05-07T00:07:15;12.70;;;11.60;;
4027;SDS011;2028;51.346;12.396;2023-05-07T00:09:41;12.53;;;11.37;;
4027;SDS011;2028;51.346;12.396;2023-05-07T00:12:07;12.90;;;11.70;;
4027;SDS011;2028;51.346;12.396;2023-05-07T00:14:33;12.00;;;10.93;;
4027;SDS011;2028;51.346;12.396;2023-05-07T00:16:59;13.20;;;11.90;;
4027;SDS011;2028;51.346;12.396;2023-05-07T00:19:25;12.77;;;11.43;;
4027;SDS011;2028;51.346;12.396;2023-05-07T00:21:51;14.07;;;12.67;;
4027;SDS011;2028;51.346;12.396;2023-05-07T00:24:19;12.93;;;11.83;;
4027;SDS011;2028;51.346;12.396;2023-05-07T00:26:45;12.80;;;11.60;;
4027;SDS011;2028;51.346;12.396;2023-05-07T00:29:11;13.47;;;12.17;;
4027;SDS011;2028;51.346;12.396;2023-05-07T00:31:38;13.07;;;11.83;;
4027;SDS011;2028;51.346;12.396;2023-05-07T00:34:04;13.67;;;12.40;;
4027;SDS011;2028;51.346;12.396;2023-05-07T00:36:31;13.03;;;11.93;;
4027;SDS011;2028;51.346;12.396;2023-05-07T00:38:59;13.13;;;11.93;;
4027;SDS011;2028;51.346;12.396;2023-05-07T00:41:27;13.53;;;12.30;;
4027;SDS011;2028;51.346;12.396;2023-05-07T00:43:53;13.90;;;12.70;;
4027;SDS011;2028;51.346;12.396;2023-05-07T00:46:20;14.00;;;12.77;;
4027;SDS011;2028;51.346;12.396;2023-05-07T00:48:46;13.93;;;12.53;;
4027;SDS011;2028;51.346;12.396;2023-05-07T00:51:13;14.53;;;13.17;;
4027;SDS011;2028;51.346;12.396;2023-05-07T00:53:39;14.50;;;13.17;;
4027;SDS011;2028;51.346;12.396;2023-05-07T00:56:06;13.87;;;12.60;;
4027;SDS011;2028;51.346;12.396;2023-05-07T00:58:33;14.80;;;13.50;;
4027;SDS011;2028;51.346;12.396;2023-05-07T01:00:59;14.37;;;12.97;;
4027;SDS011;2028;51.346;12.396;2023-05-07T01:03:26;15.63;;;14.13;;
4027;SDS011;2028;51.346;12.396;2023-05-07T01:05:52;15.87;;;14.37;;
4027;SDS011;2028;51.346;12.396;2023-05-07T01:08:19;15.47;;;14.07;;
4027;SDS011;2028;51.346;12.396;2023-05-07T01:10:46;15.23;;;13.83;;
4027;SDS011;2028;51.346;12.396;2023-05-07T01:13:12;15.20;;;13.70;;
4027;SDS011;2028;51.346;12.396;2023-05-07T01:15:39;15.50;;;14.10;;
4027;SDS011;2028;51.346;12.396;2023-05-07T01:18:06;16.30;;;14.90;;
4027;SDS011;2028;51.346;12.396;2023-05-07T01:20:32;17.13;;;15.43;;
4027;SDS011;2028;51.346;12.396;2023-05-07T01:22:58;15.37;;;13.97;;
4027;SDS011;2028;51.346;12.396;2023-05-07T01:25:26;15.83;;;14.30;;
4027;SDS011;2028;51.346;12.396;2023-05-07T01:27:53;16.40;;;14.97;;
4027;SDS011;2028;51.346;12.396;2023-05-07T01:30:20;15.87;;;14.37;;
4027;SDS011;2028;51.346;12.396;2023-05-07T01:35:24;17.47;;;15.87;;
4027;SDS011;2028;51.346;12.396;2023-05-07T01:40:19;17.07;;;15.47;;
4027;SDS011;2028;51.346;12.396;2023-05-07T01:42:45;16.90;;;15.20;;
4027;SDS011;2028;51.346;12.396;2023-05-07T01:45:13;18.27;;;16.57;;
4027;SDS011;2028;51.346;12.396;2023-05-07T01:47:40;19.13;;;17.33;;
4027;SDS011;2028;51.346;12.396;2023-05-07T01:50:06;21.07;;;19.03;;
4027;SDS011;2028;51.346;12.396;2023-05-07T01:52:37;20.77;;;18.87;;
4027;SDS011;2028;51.346;12.396;2023-05-07T01:55:04;19.90;;;18.07;;
4027;SDS011;2028;51.346;12.396;2023-05-07T01:57:30;20.20;;;18.40;;
4027;SDS011;2028;51.346;12.396;2023-05-07T01:59:57;20.77;;;18.87;;
4027;SDS011;2028;51.346;12.396;2023-05-07T02:02:23;21.77;;;19.77;;
4027;SDS011;2028;51.346;12.396;2023-05-07T02:04:49;21.97;;;19.77;;
4027;SDS011;2028;51.346;12.396;2023-05-07T02:07:15;21.93;;;19.83;;
4027;SDS011;2028;51.346;12.396;2023-05-07T02:09:41;21.17;;;19.17;;
4027;SDS011;2028;51.346;12.396;2023-05-07T02:12:07;22.27;;;20.27;;
4027;SDS011;2028;51.346;12.396;2023-05-07T02:14:33;21.60;;;19.63;;
4027;SDS011;2028;51.346;12.396;2023-05-07T02:16:59;21.43;;;19.43;;
4027;SDS011;2028;51.346;12.396;2023-05-07T02:19:25;19.93;;;18.13;;
4027;SDS011;2028;51.346;12.396;2023-05-07T02:21:51;22.33;;;20.33;;
4027;SDS011;2028;51.346;12.396;2023-05-07T02:24:19;21.27;;;19.37;;
4027;SDS011;2028;51.346;12.396;2023-05-07T02:26:46;20.80;;;18.90;;
4027;SDS011;2028;51.346;12.396;2023-05-07T02:29:12;20.33;;;18.43;;
4027;SDS011;2028;51.346;12.396;2023-05-07T02:31:38;20.77;;;18.80;;
4027;SDS011;2028;51.346;12.396;2023-05-07T02:34:04;21.17;;;19.27;;
4027;SDS011;2028;51.346;12.396;2023-05-07T02:36:30;21.63;;;19.73;;
4027;SDS011;2028;51.346;12.396;2023-05-07T02:38:56;21.97;;;19.80;;
4027;SDS011;2028;51.346;12.396;2023-05-07T02:41:22;21.87;;;19.87;;
4027;SDS011;2028;51.346;12.396;2023-05-07T02:43:48;22.23;;;20.13;;
4027;SDS011;2028;51.346;12.396;2023-05-07T02:46:14;21.60;;;19.50;;
4027;SDS011;2028;51.346;12.396;2023-05-07T02:48:41;20.23;;;18.43;;
4027;SDS011;2028;51.346;12.396;2023-05-07T02:51:07;20.53;;;18.83;;
4027;SDS011;2028;51.346;12.396;2023-05-07T02:53:33;21.77;;;19.67;;
4027;SDS011;2028;51.346;12.396;2023-05-07T02:56:00;20.23;;;18.43;;
4027;SDS011;2028;51.346;12.396;2023-05-07T02:58:26;21.50;;;19.50;;
4027;SDS011;2028;51.346;12.396;2023-05-07T03:00:52;19.70;;;18.00;;
4027;SDS011;2028;51.346;12.396;2023-05-07T03:03:20;19.70;;;17.83;;
4027;SDS011;2028;51.346;12.396;2023-05-07T03:05:46;19.10;;;17.40;;
4027;SDS011;2028;51.346;12.396;2023-05-07T03:08:12;22.60;;;18.57;;
4027;SDS011;2028;51.346;12.396;2023-05-07T03:10:38;20.80;;;18.90;;
4027;SDS011;2028;51.346;12.396;2023-05-07T03:13:05;20.67;;;18.83;;
4027;SDS011;2028;51.346;12.396;2023-05-07T03:15:31;19.47;;;17.73;;
4027;SDS011;2028;51.346;12.396;2023-05-07T03:17:57;19.17;;;17.37;;
4027;SDS011;2028;51.346;12.396;2023-05-07T03:20:23;20.03;;;18.13;;
4027;SDS011;2028;51.346;12.396;2023-05-07T03:24:16;18.00;;;16.20;;
4027;SDS011;2028;51.346;12.396;2023-05-07T03:26:42;19.60;;;17.90;;
4027;SDS011;2028;51.346;12.396;2023-05-07T03:29:09;18.97;;;17.27;;
4027;SDS011;2028;51.346;12.396;2023-05-07T03:31:35;19.07;;;17.37;;
4027;SDS011;2028;51.346;12.396;2023-05-07T03:34:01;20.00;;;18.10;;
4027;SDS011;2028;51.346;12.396;2023-05-07T03:36:27;19.37;;;17.57;;
4027;SDS011;2028;51.346;12.396;2023-05-07T03:38:53;20.07;;;18.10;;
4027;SDS011;2028;51.346;12.396;2023-05-07T03:41:19;19.77;;;18.03;;
4027;SDS011;2028;51.346;12.396;2023-05-07T03:43:46;19.30;;;17.50;;
4027;SDS011;2028;51.346;12.396;2023-05-07T03:46:12;19.87;;;18.00;;
4027;SDS011;2028;51.346;12.396;2023-05-07T03:48:38;20.57;;;18.43;;
4027;SDS011;2028;51.346;12.396;2023-05-07T03:51:04;19.17;;;17.27;;
4027;SDS011;2028;51.346;12.396;2023-05-07T03:53:30;19.93;;;18.13;;
4027;SDS011;2028;51.346;12.396;2023-05-07T03:55:56;21.27;;;19.27;;
4027;SDS011;2028;51.346;12.396;2023-05-07T03:58:23;20.53;;;18.53;;
4027;SDS011;2028;51.346;12.396;2023-05-07T04:00:49;21.10;;;19.10;;
4027;SDS011;2028;51.346;12.396;2023-05-07T04:03:15;20.73;;;18.83;;
4027;SDS011;2028;51.346;12.396;2023-05-07T04:05:41;19.87;;;18.07;;
4027;SDS011;2028;51.346;12.396;2023-05-07T04:08:07;19.80;;;17.90;;
4027;SDS011;2028;51.346;12.396;2023-05-07T04:10:33;20.00;;;18.20;;
4027;SDS011;2028;51.346;12.396;2023-05-07T04:12:59;19.87;;;18.03;;
4027;SDS011;2028;51.346;12.396;2023-05-07T04:15:25;20.87;;;18.97;;
4027;SDS011;2028;51.346;12.396;2023-05-07T04:17:51;20.40;;;18.50;;
4027;SDS011;2028;51.346;12.396;2023-05-07T04:20:17;21.30;;;19.27;;
4027;SDS011;2028;51.346;12.396;2023-05-07T04:22:43;21.97;;;19.93;;
4027;SDS011;2028;51.346;12.396;2023-05-07T04:25:09;19.53;;;17.73;;
4027;SDS011;2028;51.346;12.396;2023-05-07T04:27:35;21.30;;;19.20;;
4027;SDS011;2028;51.346;12.396;2023-05-07T04:30:03;20.83;;;18.93;;
4027;SDS011;2028;51.346;12.396;2023-05-07T04:32:29;22.07;;;19.97;;
4027;SDS011;2028;51.346;12.396;2023-05-07T04:34:56;20.30;;;18.30;;
4027;SDS011;2028;51.346;12.396;2023-05-07T04:37:22;21.10;;;18.90;;
4027;SDS011;2028;51.346;12.396;2023-05-07T04:39:48;20.33;;;18.43;;
4027;SDS011;2028;51.346;12.396;2023-05-07T04:42:15;20.13;;;18.23;;
4027;SDS011;2028;51.346;12.396;2023-05-07T04:44:44;21.20;;;19.23;;
4027;SDS011;2028;51.346;12.396;2023-05-07T04:47:11;19.50;;;17.50;;
4027;SDS011;2028;51.346;12.396;2023-05-07T04:49:40;19.33;;;17.53;;
4027;SDS011;2028;51.346;12.396;2023-05-07T04:52:06;19.13;;;17.37;;
4027;SDS011;2028;51.346;12.396;2023-05-07T04:54:32;18.87;;;17.10;;
4027;SDS011;2028;51.346;12.396;2023-05-07T04:56:59;17.53;;;15.73;;
4027;SDS011;2028;51.346;12.396;2023-05-07T04:59:24;17.87;;;16.27;;
4027;SDS011;2028;51.346;12.396;2023-05-07T05:01:51;18.07;;;16.37;;
4027;SDS011;2028;51.346;12.396;2023-05-07T05:04:16;17.70;;;16.13;;
4027;SDS011;2028;51.346;12.396;2023-05-07T05:06:43;17.17;;;15.53;;
4027;SDS011;2028;51.346;12.396;2023-05-07T05:09:09;17.23;;;15.53;;
4027;SDS011;2028;51.346;12.396;2023-05-07T05:11:35;16.30;;;14.80;;
4027;SDS011;2028;51.346;12.396;2023-05-07T05:14:01;17.37;;;15.37;;
4027;SDS011;2028;51.346;12.396;2023-05-07T05:16:27;15.60;;;14.20;;
4027;SDS011;2028;51.346;12.396;2023-05-07T05:18:53;15.90;;;14.40;;
4027;SDS011;2028;51.346;12.396;2023-05-07T05:21:20;15.30;;;13.80;;
4027;SDS011;2028;51.346;12.396;2023-05-07T05:23:46;15.70;;;13.80;;
4027;SDS011;2028;51.346;12.396;2023-05-07T05:26:12;14.30;;;13.00;;
4027;SDS011;2028;51.346;12.396;2023-05-07T05:28:38;14.30;;;13.00;;
4027;SDS011;2028;51.346;12.396;2023-05-07T05:31:05;14.10;;;12.70;;
4027;SDS011;2028;51.346;12.396;2023-05-07T05:33:31;14.13;;;12.93;;
4027;SDS011;2028;51.346;12.396;2023-05-07T05:35:57;13.50;;;12.23;;
4027;SDS011;2028;51.346;12.396;2023-05-07T05:38:23;13.60;;;12.37;;
4027;SDS011;2028;51.346;12.396;2023-05-07T05:40:49;12.97;;;11.73;;
4027;SDS011;2028;51.346;12.396;2023-05-07T05:43:15;13.10;;;12.00;;
4027;SDS011;2028;51.346;12.396;2023-05-07T05:45:41;13.40;;;12.20;;
4027;SDS011;2028;51.346;12.396;2023-05-07T05:48:08;13.80;;;12.53;;
4027;SDS011;2028;51.346;12.396;2023-05-07T05:50:34;12.33;;;11.20;;
4027;SDS011;2028;51.346;12.396;2023-05-07T05:53:02;12.47;;;11.27;;
4027;SDS011;2028;51.346;12.396;2023-05-07T05:55:28;13.07;;;11.87;;
4027;SDS011;2028;51.346;12.396;2023-05-07T05:57:55;14.43;;;12.10;;
4027;SDS011;2028;51.346;12.396;2023-05-07T06:00:21;13.20;;;12.00;;
4027;SDS011;2028;51.346;12.396;2023-05-07T06:02:48;13.50;;;12.30;;
4027;SDS011;2028;51.346;12.396;2023-05-07T06:05:14;15.10;;;13.70;;
4027;SDS011;2028;51.346;12.396;2023-05-07T06:07:40;14.83;;;12.87;;
4027;SDS011;2028;51.346;12.396;2023-05-07T06:10:06;14.10;;;12.80;;
4027;SDS011;2028;51.346;12.396;2023-05-07T06:12:32;14.47;;;13.17;;
4027;SDS011;2028;51.346;12.396;2023-05-07T06:14:58;15.93;;;14.53;;
4027;SDS011;2028;51.346;12.396;2023-05-07T06:17:24;14.37;;;13.00;;
4027;SDS011;2028;51.346;12.396;2023-05-07T06:19:50;15.50;;;14.20;;
4027;SDS011;2028;51.346;12.396;2023-05-07T06:22:17;15.10;;;13.77;;
4027;SDS011;2028;51.346;12.396;2023-05-07T06:24:43;16.40;;;14.90;;
4027;SDS011;2028;51.346;12.396;2023-05-07T06:27:09;15.70;;;14.30;;
4027;SDS011;2028;51.346;12.396;2023-05-07T06:29:36;16.37;;;14.87;;
4027;SDS011;2028;51.346;12.396;2023-05-07T06:34:34;16.50;;;15.07;;
4027;SDS011;2028;51.346;12.396;2023-05-07T06:37:01;16.03;;;14.53;;
4027;SDS011;2028;51.346;12.396;2023-05-07T06:39:27;15.27;;;13.77;;
4027;SDS011;2028;51.346;12.396;2023-05-07T06:41:54;16.67;;;15.07;;
4027;SDS011;2028;51.346;12.396;2023-05-07T06:44:20;14.40;;;13.13;;
4027;SDS011;2028;51.346;12.396;2023-05-07T06:46:46;16.03;;;14.53;;
4027;SDS011;2028;51.346;12.396;2023-05-07T06:49:13;15.27;;;13.87;;
4027;SDS011;2028;51.346;12.396;2023-05-07T06:51:39;36.13;;;29.33;;
4027;SDS011;2028;51.346;12.396;2023-05-07T06:54:05;20.30;;;18.30;;
4027;SDS011;2028;51.346;12.396;2023-05-07T06:56:32;13.57;;;12.43;;
4027;SDS011;2028;51.346;12.396;2023-05-07T06:58:59;13.83;;;12.60;;
4027;SDS011;2028;51.346;12.396;2023-05-07T07:01:25;14.03;;;12.63;;
4027;SDS011;2028;51.346;12.396;2023-05-07T07:03:52;12.87;;;11.77;;
4027;SDS011;2028;51.346;12.396;2023-05-07T07:06:18;14.90;;;13.57;;
4027;SDS011;2028;51.346;12.396;2023-05-07T07:08:45;15.00;;;13.50;;
4027;SDS011;2028;51.346;12.396;2023-05-07T07:11:11;12.90;;;11.63;;
4027;SDS011;2028;51.346;12.396;2023-05-07T07:13:37;13.60;;;12.30;;
4027;SDS011;2028;51.346;12.396;2023-05-07T07:16:05;13.33;;;12.10;;
4027;SDS011;2028;51.346;12.396;2023-05-07T07:18:31;13.33;;;12.17;;
4027;SDS011;2028;51.346;12.396;2023-05-07T07:20:58;12.13;;;11.10;;
4027;SDS011;2028;51.346;12.396;2023-05-07T07:23:24;11.53;;;10.53;;
4027;SDS011;2028;51.346;12.396;2023-05-07T07:25:50;12.07;;;11.07;;
4027;SDS011;2028;51.346;12.396;2023-05-07T07:28:17;11.63;;;10.63;;
4027;SDS011;2028;51.346;12.396;2023-05-07T07:30:43;10.53;;;9.63;;
4027;SDS011;2028;51.346;12.396;2023-05-07T07:33:09;11.53;;;10.50;;
4027;SDS011;2028;51.346;12.396;2023-05-07T07:35:36;10.97;;;10.07;;
4027;SDS011;2028;51.346;12.396;2023-05-07T07:38:02;10.87;;;9.97;;
4027;SDS011;2028;51.346;12.396;2023-05-07T07:40:28;11.70;;;10.60;;
4027;SDS011;2028;51.346;12.396;2023-05-07T07:42:56;10.60;;;9.70;;
4027;SDS011;2028;51.346;12.396;2023-05-07T07:45:22;10.57;;;9.67;;
4027;SDS011;2028;51.346;12.396;2023-05-07T07:47:48;9.83;;;9.03;;
4027;SDS011;2028;51.346;12.396;2023-05-07T07:50:14;9.47;;;8.67;;
4027;SDS011;2028;51.346;12.396;2023-05-07T07:52:40;8.20;;;7.60;;
4027;SDS011;2028;51.346;12.396;2023-05-07T07:55:07;8.27;;;7.57;;
4027;SDS011;2028;51.346;12.396;2023-05-07T07:57:33;8.30;;;7.63;;
4027;SDS011;2028;51.346;12.396;2023-05-07T08:00:03;8.63;;;7.93;;
4027;SDS011;2028;51.346;12.396;2023-05-07T08:02:29;19.43;;;17.43;;
4027;SDS011;2028;51.346;12.396;2023-05-07T08:04:58;13.57;;;12.27;;
4027;SDS011;2028;51.346;12.396;2023-05-07T08:07:24;8.27;;;7.57;;
4027;SDS011;2028;51.346;12.396;2023-05-07T08:09:50;7.90;;;7.30;;
4027;SDS011;2028;51.346;12.396;2023-05-07T08:12:17;7.80;;;7.10;;
4027;SDS011;2028;51.346;12.396;2023-05-07T08:14:43;8.80;;;8.00;;
4027;SDS011;2028;51.346;12.396;2023-05-07T08:17:09;7.63;;;7.03;;
4027;SDS011;2028;51.346;12.396;2023-05-07T08:19:35;7.60;;;7.00;;
4027;SDS011;2028;51.346;12.396;2023-05-07T08:22:02;7.67;;;7.07;;
4027;SDS011;2028;51.346;12.396;2023-05-07T08:24:30;7.53;;;6.83;;
4027;SDS011;2028;51.346;12.396;2023-05-07T08:26:57;7.50;;;6.87;;
4027;SDS011;2028;51.346;12.396;2023-05-07T08:29:23;7.70;;;7.10;;
4027;SDS011;2028;51.346;12.396;2023-05-07T08:31:48;8.23;;;7.50;;
4027;SDS011;2028;51.346;12.396;2023-05-07T08:34:15;7.67;;;7.07;;
4027;SDS011;2028;51.346;12.396;2023-05-07T08:36:41;7.93;;;7.33;;
4027;SDS011;2028;51.346;12.396;2023-05-07T08:39:08;7.00;;;6.40;;
4027;SDS011;2028;51.346;12.396;2023-05-07T08:41:34;7.63;;;7.03;;
4027;SDS011;2028;51.346;12.396;2023-05-07T08:44:01;16.27;;;14.87;;
4027;SDS011;2028;51.346;12.396;2023-05-07T08:46:31;8.53;;;7.83;;
4027;SDS011;2028;51.346;12.396;2023-05-07T08:48:58;8.10;;;7.50;;
4027;SDS011;2028;51.346;12.396;2023-05-07T08:51:24;8.50;;;7.77;;
4027;SDS011;2028;51.346;12.396;2023-05-07T08:53:50;8.10;;;7.40;;
4027;SDS011;2028;51.346;12.396;2023-05-07T08:56:17;8.87;;;8.07;;
4027;SDS011;2028;51.346;12.396;2023-05-07T08:58:54;8.60;;;7.80;;
4027;SDS011;2028;51.346;12.396;2023-05-07T09:02:27;8.43;;;7.77;;
4027;SDS011;2028;51.346;12.396;2023-05-07T09:05:14;8.77;;;7.90;;
4027;SDS011;2028;51.346;12.396;2023-05-07T09:08:27;9.10;;;8.40;;
4027;SDS011;2028;51.346;12.396;2023-05-07T09:26:33;8.67;;;7.87;;
4027;SDS011;2028;51.346;12.396;2023-05-07T09:38:01;8.67;;;7.97;;
4027;SDS011;2028;51.346;12.396;2023-05-07T09:41:12;8.53;;;7.73;;
4027;SDS011;2028;51.346;12.396;2023-05-07T09:44:15;8.83;;;8.13;;
4027;SDS011;2028;51.346;12.396;2023-05-07T09:55:15;9.30;;;8.53;;
4027;SDS011;2028;51.346;12.396;2023-05-07T09:57:59;9.47;;;8.37;;
4027;SDS011;2028;51.346;12.396;2023-05-07T10:00:41;8.73;;;8.03;;
4027;SDS011;2028;51.346;12.396;2023-05-07T10:03:51;8.53;;;7.93;;
4027;SDS011;2028;51.346;12.396;2023-05-07T10:06:20;8.03;;;7.33;;
4027;SDS011;2028;51.346;12.396;2023-05-07T10:08:53;7.93;;;7.20;;
4027;SDS011;2028;51.346;12.396;2023-05-07T10:12:21;8.10;;;7.40;;
4027;SDS011;2028;51.346;12.396;2023-05-07T10:14:51;8.20;;;7.40;;
4027;SDS011;2028;51.346;12.396;2023-05-07T10:20:23;9.30;;;8.40;;
4027;SDS011;2028;51.346;12.396;2023-05-07T10:22:58;8.23;;;7.43;;
4027;SDS011;2028;51.346;12.396;2023-05-07T10:28:13;7.10;;;6.50;;
4027;SDS011;2028;51.346;12.396;2023-05-07T10:34:21;7.30;;;6.70;;
4027;SDS011;2028;51.346;12.396;2023-05-07T10:37:05;6.60;;;6.10;;
4027;SDS011;2028;51.346;12.396;2023-05-07T10:39:40;7.27;;;6.67;;
4027;SDS011;2028;51.346;12.396;2023-05-07T10:42:30;7.43;;;6.73;;
4027;SDS011;2028;51.346;12.396;2023-05-07T10:45:13;6.83;;;6.23;;
4027;SDS011;2028;51.346;12.396;2023-05-07T10:51:23;7.80;;;7.20;;
4027;SDS011;2028;51.346;12.396;2023-05-07T10:54:35;7.80;;;7.20;;
4027;SDS011;2028;51.346;12.396;2023-05-07T11:01:05;10.17;;;9.37;;
4027;SDS011;2028;51.346;12.396;2023-05-07T11:04:18;10.57;;;9.67;;
4027;SDS011;2028;51.346;12.396;2023-05-07T11:11:55;10.07;;;9.17;;
4027;SDS011;2028;51.346;12.396;2023-05-07T11:15:46;9.73;;;8.90;;
4027;SDS011;2028;51.346;12.396;2023-05-07T11:18:14;8.67;;;7.87;;
4027;SDS011;2028;51.346;12.396;2023-05-07T11:20:44;10.67;;;9.50;;
4027;SDS011;2028;51.346;12.396;2023-05-07T11:24:11;10.47;;;9.47;;
4027;SDS011;2028;51.346;12.396;2023-05-07T11:26:07;9.60;;;8.70;;
4027;SDS011;2028;51.346;12.396;2023-05-07T11:28:40;9.60;;;8.60;;
4027;SDS011;2028;51.346;12.396;2023-05-07T11:31:07;9.37;;;8.57;;
4027;SDS011;2028;51.346;12.396;2023-05-07T11:33:33;8.53;;;7.83;;
4027;SDS011;2028;51.346;12.396;2023-05-07T11:36:00;8.37;;;7.67;;
4027;SDS011;2028;51.346;12.396;2023-05-07T11:38:26;8.37;;;7.67;;
4027;SDS011;2028;51.346;12.396;2023-05-07T11:40:54;9.10;;;8.30;;
4027;SDS011;2028;51.346;12.396;2023-05-07T11:43:21;8.93;;;8.10;;
4027;SDS011;2028;51.346;12.396;2023-05-07T11:45:47;8.47;;;7.77;;
4027;SDS011;2028;51.346;12.396;2023-05-07T11:48:14;9.80;;;8.90;;
4027;SDS011;2028;51.346;12.396;2023-05-07T11:53:18;8.30;;;7.47;;
4027;SDS011;2028;51.346;12.396;2023-05-07T11:55:45;9.07;;;8.17;;
4027;SDS011;2028;51.346;12.396;2023-05-07T11:58:12;8.00;;;7.20;;
4027;SDS011;2028;51.346;12.396;2023-05-07T12:00:52;7.67;;;6.97;;
4027;SDS011;2028;51.346;12.396;2023-05-07T12:03:18;8.53;;;7.83;;
4027;SDS011;2028;51.346;12.396;2023-05-07T12:05:47;8.67;;;7.90;;
4027;SDS011;2028;51.346;12.396;2023-05-07T12:08:14;9.83;;;8.93;;
4027;SDS011;2028;51.346;12.396;2023-05-07T12:10:41;9.37;;;8.20;;
4027;SDS011;2028;51.346;12.396;2023-05-07T12:13:18;9.50;;;8.43;;
4027;SDS011;2028;51.346;12.396;2023-05-07T12:15:45;9.80;;;8.90;;
4027;SDS011;2028;51.346;12.396;2023-05-07T12:18:12;8.30;;;7.67;;
4027;SDS011;2028;51.346;12.396;2023-05-07T12:20:38;9.90;;;9.07;;
4027;SDS011;2028;51.346;12.396;2023-05-07T12:23:05;8.13;;;7.40;;
4027;SDS011;2028;51.346;12.396;2023-05-07T12:25:32;9.30;;;8.40;;
4027;SDS011;2028;51.346;12.396;2023-05-07T12:28:02;8.03;;;7.23;;
4027;SDS011;2028;51.346;12.396;2023-05-07T12:30:31;8.23;;;7.43;;
4027;SDS011;2028;51.346;12.396;2023-05-07T12:32:58;8.60;;;7.73;;
4027;SDS011;2028;51.346;12.396;2023-05-07T12:35:28;8.60;;;7.80;;
4027;SDS011;2028;51.346;12.396;2023-05-07T12:37:57;8.57;;;7.87;;
4027;SDS011;2028;51.346;12.396;2023-05-07T12:40:46;9.67;;;8.83;;
4027;SDS011;2028;51.346;12.396;2023-05-07T12:45:37;10.53;;;9.50;;
4027;SDS011;2028;51.346;12.396;2023-05-07T12:48:04;9.60;;;8.70;;
4027;SDS011;2028;51.346;12.396;2023-05-07T12:50:31;10.10;;;9.17;;
4027;SDS011;2028;51.346;12.396;2023-05-07T12:52:58;7.90;;;7.30;;
4027;SDS011;2028;51.346;12.396;2023-05-07T12:55:25;7.17;;;6.57;;
4027;SDS011;2028;51.346;12.396;2023-05-07T12:57:51;7.60;;;6.80;;
4027;SDS011;2028;51.346;12.396;2023-05-07T13:03:03;7.70;;;7.00;;
4027;SDS011;2028;51.346;12.396;2023-05-07T13:05:30;7.23;;;6.53;;
4027;SDS011;2028;51.346;12.396;2023-05-07T13:07:57;6.97;;;6.37;;
4027;SDS011;2028;51.346;12.396;2023-05-07T13:10:24;8.20;;;6.30;;
4027;SDS011;2028;51.346;12.396;2023-05-07T13:12:50;8.53;;;7.13;;
4027;SDS011;2028;51.346;12.396;2023-05-07T13:15:17;6.93;;;6.33;;
4027;SDS011;2028;51.346;12.396;2023-05-07T13:17:43;8.20;;;7.50;;
4027;SDS011;2028;51.346;12.396;2023-05-07T13:20:10;7.07;;;6.47;;
4027;SDS011;2028;51.346;12.396;2023-05-07T13:22:38;6.70;;;6.20;;
4027;SDS011;2028;51.346;12.396;2023-05-07T13:25:04;6.77;;;6.17;;
4027;SDS011;2028;51.346;12.396;2023-05-07T13:27:31;7.20;;;6.60;;
4027;SDS011;2028;51.346;12.396;2023-05-07T13:30:00;8.10;;;7.23;;
4027;SDS011;2028;51.346;12.396;2023-05-07T13:32:26;7.23;;;6.63;;
4027;SDS011;2028;51.346;12.396;2023-05-07T13:34:52;7.67;;;6.97;;
4027;SDS011;2028;51.346;12.396;2023-05-07T13:37:18;5.80;;;5.40;;
4027;SDS011;2028;51.346;12.396;2023-05-07T13:39:45;6.27;;;5.67;;
4027;SDS011;2028;51.346;12.396;2023-05-07T13:42:12;6.70;;;6.10;;
4027;SDS011;2028;51.346;12.396;2023-05-07T13:44:37;6.80;;;6.20;;
4027;SDS011;2028;51.346;12.396;2023-05-07T13:47:03;5.53;;;5.13;;
4027;SDS011;2028;51.346;12.396;2023-05-07T13:49:29;6.10;;;5.60;;
4027;SDS011;2028;51.346;12.396;2023-05-07T13:51:56;6.50;;;6.00;;
4027;SDS011;2028;51.346;12.396;2023-05-07T13:54:22;7.53;;;6.80;;
4027;SDS011;2028;51.346;12.396;2023-05-07T13:56:48;6.70;;;6.10;;
4027;SDS011;2028;51.346;12.396;2023-05-07T13:59:14;5.93;;;5.43;;
4027;SDS011;2028;51.346;12.396;2023-05-07T14:01:40;5.87;;;5.37;;
4027;SDS011;2028;51.346;12.396;2023-05-07T14:04:07;5.87;;;5.37;;
4027;SDS011;2028;51.346;12.396;2023-05-07T14:06:33;5.93;;;5.43;;
4027;SDS011;2028;51.346;12.396;2023-05-07T14:09:00;6.17;;;5.50;;
4027;SDS011;2028;51.346;12.396;2023-05-07T14:11:26;6.20;;;5.70;;
4027;SDS011;2028;51.346;12.396;2023-05-07T14:13:52;6.47;;;5.13;;
4027;SDS011;2028;51.346;12.396;2023-05-07T14:16:19;6.00;;;5.50;;
4027;SDS011;2028;51.346;12.396;2023-05-07T14:18:45;6.67;;;5.07;;
4027;SDS011;2028;51.346;12.396;2023-05-07T14:21:11;5.10;;;4.67;;
4027;SDS011;2028;51.346;12.396;2023-05-07T14:23:38;5.83;;;5.33;;
4027;SDS011;2028;51.346;12.396;2023-05-07T14:26:04;7.53;;;5.00;;
4027;SDS011;2028;51.346;12.396;2023-05-07T14:28:30;7.20;;;6.57;;
4027;SDS011;2028;51.346;12.396;2023-05-07T14:30:56;5.17;;;4.77;;
4027;SDS011;2028;51.346;12.396;2023-05-07T14:33:23;5.47;;;4.97;;
4027;SDS011;2028;51.346;12.396;2023-05-07T14:35:49;5.40;;;5.00;;
4027;SDS011;2028;51.346;12.396;2023-05-07T14:38:15;5.20;;;4.80;;
4027;SDS011;2028;51.346;12.396;2023-05-07T14:40:42;6.13;;;4.30;;
4027;SDS011;2028;51.346;12.396;2023-05-07T14:43:08;4.53;;;4.23;;
4027;SDS011;2028;51.346;12.396;2023-05-07T14:45:35;5.47;;;4.43;;
4027;SDS011;2028;51.346;12.396;2023-05-07T14:48:01;5.10;;;4.70;;
4027;SDS011;2028;51.346;12.396;2023-05-07T14:50:27;5.67;;;5.10;;
4027;SDS011;2028;51.346;12.396;2023-05-07T14:52:54;5.73;;;5.20;;
4027;SDS011;2028;51.346;12.396;2023-05-07T14:55:20;5.10;;;4.70;;
4027;SDS011;2028;51.346;12.396;2023-05-07T14:57:46;4.90;;;4.40;;
4027;SDS011;2028;51.346;12.396;2023-05-07T15:00:13;5.00;;;4.60;;
4027;SDS011;2028;51.346;12.396;2023-05-07T15:02:39;5.17;;;4.77;;
4027;SDS011;2028;51.346;12.396;2023-05-07T15:05:06;4.63;;;4.33;;
4027;SDS011;2028;51.346;12.396;2023-05-07T15:07:32;4.50;;;4.20;;
4027;SDS011;2028;51.346;12.396;2023-05-07T15:09:59;4.87;;;4.50;;
4027;SDS011;2028;51.346;12.396;2023-05-07T15:12:25;4.50;;;4.10;;
4027;SDS011;2028;51.346;12.396;2023-05-07T15:14:51;4.50;;;4.20;;
4027;SDS011;2028;51.346;12.396;2023-05-07T15:17:18;5.00;;;4.60;;
4027;SDS011;2028;51.346;12.396;2023-05-07T15:19:44;5.23;;;4.60;;
4027;SDS011;2028;51.346;12.396;2023-05-07T15:22:10;7.33;;;5.60;;
4027;SDS011;2028;51.346;12.396;2023-05-07T15:24:36;14.33;;;7.00;;
4027;SDS011;2028;51.346;12.396;2023-05-07T15:27:02;8.50;;;7.70;;
4027;SDS011;2028;51.346;12.396;2023-05-07T15:29:29;5.93;;;5.50;;
4027;SDS011;2028;51.346;12.396;2023-05-07T15:31:55;5.67;;;5.23;;
4027;SDS011;2028;51.346;12.396;2023-05-07T15:34:22;5.00;;;4.60;;
4027;SDS011;2028;51.346;12.396;2023-05-07T15:36:49;5.50;;;5.00;;
4027;SDS011;2028;51.346;12.396;2023-05-07T15:39:15;6.00;;;5.50;;
4027;SDS011;2028;51.346;12.396;2023-05-07T15:41:42;6.20;;;5.60;;
4027;SDS011;2028;51.346;12.396;2023-05-07T15:44:08;7.40;;;6.40;;
4027;SDS011;2028;51.346;12.396;2023-05-07T15:46:35;5.53;;;5.03;;
4027;SDS011;2028;51.346;12.396;2023-05-07T15:49:01;6.00;;;5.50;;
4027;SDS011;2028;51.346;12.396;2023-05-07T15:51:29;5.43;;;5.03;;
4027;SDS011;2028;51.346;12.396;2023-05-07T15:53:56;5.47;;;5.07;;
4027;SDS011;2028;51.346;12.396;2023-05-07T15:56:22;7.63;;;5.70;;
4027;SDS011;2028;51.346;12.396;2023-05-07T15:58:49;6.17;;;5.37;;
4027;SDS011;2028;51.346;12.396;2023-05-07T16:01:17;5.87;;;5.37;;
4027;SDS011;2028;51.346;12.396;2023-05-07T16:03:43;7.17;;;6.57;;
4027;SDS011;2028;51.346;12.396;2023-05-07T16:06:10;5.87;;;5.37;;
4027;SDS011;2028;51.346;12.396;2023-05-07T16:08:37;5.73;;;5.30;;